sensor_id;sensor_type;location;lat;lon;timestamp;pressure;altitude;pressure_sealevel;temperature;humidity
71165;BME280;58859;55.132;-1.586;2023-07-22T00:00:20;100649.25;;;19.28;100.00
71165;BME280;58859;55.132;-1.586;2023-07-22T00:02:47;100651.50;;;19.25;100.00
71165;BME280;58859;55.132;-1.586;2023-07-22T00:05:13;100650.84;;;19.36;100.00
71165;BME280;58859;55.132;-1.586;2023-07-22T00:07:38;100646.47;;;18.17;100.00
71165;BME280;58859;55.132;-1.586;2023-07-22T00:10:06;100644.81;;;18.96;100.00
71165;BME280;58859;55.132;-1.586;2023-07-22T00:12:34;100648.84;;;18.66;100.00
71165;BME280;58859;55.132;-1.586;2023-07-22T00:14:59;100647.84;;;19.00;100.00
71165;BME280;58859;55.132;-1.586;2023-07-22T00:17:24;100648.13;;;18.31;100.00
71165;BME280;58859;55.132;-1.586;2023-07-22T00:19:50;100646.97;;;18.47;100.00
71165;BME280;58859;55.132;-1.586;2023-07-22T00:22:15;100636.66;;;19.57;100.00
71165;BME280;58859;55.132;-1.586;2023-07-22T00:24:41;100635.50;;;19.07;100.00
71165;BME280;58859;55.132;-1.586;2023-07-22T00:27:07;100639.03;;;19.78;100.00
71165;BME280;58859;55.132;-1.586;2023-07-22T00:29:36;100638.41;;;19.76;100.00
71165;BME280;58859;55.132;-1.586;2023-07-22T00:32:02;100636.66;;;19.30;100.00
71165;BME280;58859;55.132;-1.586;2023-07-22T00:34:27;100641.97;;;18.78;100.00
71165;BME280;58859;55.132;-1.586;2023-07-22T00:36:53;100627.75;;;19.51;100.00
71165;BME280;58859;55.132;-1.586;2023-07-22T00:39:18;100632.22;;;18.52;100.00
71165;BME280;58859;55.132;-1.586;2023-07-22T00:41:44;100636.28;;;18.55;100.00
71165;BME280;58859;55.132;-1.586;2023-07-22T00:44:12;100625.94;;;19.19;100.00
71165;BME280;58859;55.132;-1.586;2023-07-22T00:46:38;100621.03;;;19.55;100.00
71165;BME280;58859;55.132;-1.586;2023-07-22T00:49:07;100616.22;;;18.93;100.00
71165;BME280;58859;55.132;-1.586;2023-07-22T00:51:33;100613.56;;;18.54;100.00
71165;BME280;58859;55.132;-1.586;2023-07-22T00:53:59;100619.69;;;19.07;100.00
71165;BME280;58859;55.132;-1.586;2023-07-22T00:56:25;100618.03;;;19.19;100.00
71165;BME280;58859;55.132;-1.586;2023-07-22T00:58:51;100605.09;;;19.04;100.00
71165;BME280;58859;55.132;-1.586;2023-07-22T01:01:17;100607.84;;;19.48;100.00
71165;BME280;58859;55.132;-1.586;2023-07-22T01:03:42;100597.78;;;19.83;100.00
71165;BME280;58859;55.132;-1.586;2023-07-22T01:06:09;100599.91;;;19.62;100.00
71165;BME280;58859;55.132;-1.586;2023-07-22T01:08:34;100595.66;;;19.61;100.00
71165;BME280;58859;55.132;-1.586;2023-07-22T01:11:00;100592.72;;;18.72;100.00
71165;BME280;58859;55.132;-1.586;2023-07-22T01:13:25;100577.88;;;19.17;100.00
71165;BME280;58859;55.132;-1.586;2023-07-22T01:15:51;100576.00;;;19.94;100.00
71165;BME280;58859;55.132;-1.586;2023-07-22T01:18:16;100571.81;;;19.80;100.00
71165;BME280;58859;55.132;-1.586;2023-07-22T01:20:42;100574.81;;;19.84;100.00
71165;BME280;58859;55.132;-1.586;2023-07-22T01:23:09;100564.13;;;18.69;100.00
71165;BME280;58859;55.132;-1.586;2023-07-22T01:25:34;100574.63;;;19.15;100.00
71165;BME280;58859;55.132;-1.586;2023-07-22T01:28:00;100575.69;;;18.48;100.00
71165;BME280;58859;55.132;-1.586;2023-07-22T01:30:25;100563.88;;;19.23;100.00
71165;BME280;58859;55.132;-1.586;2023-07-22T01:32:52;100556.34;;;19.84;100.00
71165;BME280;58859;55.132;-1.586;2023-07-22T01:35:18;100561.63;;;19.39;100.00
71165;BME280;58859;55.132;-1.586;2023-07-22T01:37:44;100556.59;;;19.76;100.00
71165;BME280;58859;55.132;-1.586;2023-07-22T01:40:10;100554.91;;;19.43;100.00
71165;BME280;58859;55.132;-1.586;2023-07-22T01:42:40;100551.09;;;19.20;100.00
71165;BME280;58859;55.132;-1.586;2023-07-22T01:45:06;100542.41;;;19.70;100.00
71165;BME280;58859;55.132;-1.586;2023-07-22T01:47:34;100540.66;;;19.58;100.00
71165;BME280;58859;55.132;-1.586;2023-07-22T01:50:00;100541.97;;;19.16;100.00
71165;BME280;58859;55.132;-1.586;2023-07-22T01:52:25;100535.03;;;17.84;100.00
71165;BME280;58859;55.132;-1.586;2023-07-22T01:54:51;100542.31;;;17.41;100.00
71165;BME280;58859;55.132;-1.586;2023-07-22T01:57:16;100535.13;;;18.43;100.00
71165;BME280;58859;55.132;-1.586;2023-07-22T01:59:41;100530.88;;;19.01;100.00
71165;BME280;58859;55.132;-1.586;2023-07-22T02:02:07;100532.25;;;18.05;100.00
71165;BME280;58859;55.132;-1.586;2023-07-22T02:04:32;100537.78;;;18.95;100.00
71165;BME280;58859;55.132;-1.586;2023-07-22T02:06:57;100535.09;;;16.32;100.00
71165;BME280;58859;55.132;-1.586;2023-07-22T02:09:23;100518.75;;;16.36;100.00
71165;BME280;58859;55.132;-1.586;2023-07-22T02:11:49;100517.53;;;16.53;100.00
71165;BME280;58859;55.132;-1.586;2023-07-22T02:14:14;100515.84;;;17.96;100.00
71165;BME280;58859;55.132;-1.586;2023-07-22T02:16:39;100510.47;;;17.63;100.00
71165;BME280;58859;55.132;-1.586;2023-07-22T02:19:05;100501.31;;;18.13;100.00
71165;BME280;58859;55.132;-1.586;2023-07-22T02:21:30;100500.66;;;18.11;100.00
71165;BME280;58859;55.132;-1.586;2023-07-22T02:23:56;100510.94;;;17.33;100.00
71165;BME280;58859;55.132;-1.586;2023-07-22T02:26:21;100499.09;;;18.69;100.00
71165;BME280;58859;55.132;-1.586;2023-07-22T02:28:47;100495.53;;;17.77;100.00
71165;BME280;58859;55.132;-1.586;2023-07-22T02:31:13;100492.19;;;18.35;100.00
71165;BME280;58859;55.132;-1.586;2023-07-22T02:33:39;100490.72;;;18.99;100.00
71165;BME280;58859;55.132;-1.586;2023-07-22T02:36:04;100495.50;;;17.57;100.00
71165;BME280;58859;55.132;-1.586;2023-07-22T02:38:30;100493.03;;;19.33;100.00
71165;BME280;58859;55.132;-1.586;2023-07-22T02:41:01;100488.16;;;19.30;100.00
71165;BME280;58859;55.132;-1.586;2023-07-22T02:43:27;100483.06;;;18.77;100.00
71165;BME280;58859;55.132;-1.586;2023-07-22T02:45:53;100487.66;;;19.08;100.00
71165;BME280;58859;55.132;-1.586;2023-07-22T02:48:18;100482.88;;;18.33;100.00
71165;BME280;58859;55.132;-1.586;2023-07-22T02:50:44;100477.38;;;17.95;100.00
71165;BME280;58859;55.132;-1.586;2023-07-22T02:53:09;100468.25;;;17.24;100.00
71165;BME280;58859;55.132;-1.586;2023-07-22T02:55:35;100480.97;;;17.68;100.00
71165;BME280;58859;55.132;-1.586;2023-07-22T02:58:00;100471.28;;;17.95;100.00
71165;BME280;58859;55.132;-1.586;2023-07-22T03:00:25;100470.78;;;17.04;100.00
71165;BME280;58859;55.132;-1.586;2023-07-22T03:02:52;100463.88;;;16.97;100.00
71165;BME280;58859;55.132;-1.586;2023-07-22T03:05:19;100463.81;;;18.37;100.00
71165;BME280;58859;55.132;-1.586;2023-07-22T03:07:44;100469.69;;;18.46;100.00
71165;BME280;58859;55.132;-1.586;2023-07-22T03:10:10;100454.72;;;18.20;100.00
71165;BME280;58859;55.132;-1.586;2023-07-22T03:12:36;100457.09;;;17.69;100.00
71165;BME280;58859;55.132;-1.586;2023-07-22T03:15:02;100452.34;;;17.52;100.00
71165;BME280;58859;55.132;-1.586;2023-07-22T03:17:29;100455.75;;;16.92;100.00
71165;BME280;58859;55.132;-1.586;2023-07-22T03:19:55;100455.19;;;17.03;100.00
71165;BME280;58859;55.132;-1.586;2023-07-22T03:22:20;100454.31;;;18.10;100.00
71165;BME280;58859;55.132;-1.586;2023-07-22T03:24:45;100447.81;;;18.19;100.00
71165;BME280;58859;55.132;-1.586;2023-07-22T03:27:12;100450.84;;;17.90;100.00
71165;BME280;58859;55.132;-1.586;2023-07-22T03:29:39;100438.72;;;18.35;100.00
71165;BME280;58859;55.132;-1.586;2023-07-22T03:32:05;100442.84;;;15.86;100.00
71165;BME280;58859;55.132;-1.586;2023-07-22T03:34:31;100426.81;;;17.33;100.00
71165;BME280;58859;55.132;-1.586;2023-07-22T03:36:57;100430.22;;;18.07;100.00
71165;BME280;58859;55.132;-1.586;2023-07-22T03:39:23;100434.47;;;17.21;100.00
71165;BME280;58859;55.132;-1.586;2023-07-22T03:41:49;100425.81;;;17.34;100.00
71165;BME280;58859;55.132;-1.586;2023-07-22T03:44:14;100433.03;;;15.94;100.00
71165;BME280;58859;55.132;-1.586;2023-07-22T03:46:39;100441.13;;;17.97;100.00
71165;BME280;58859;55.132;-1.586;2023-07-22T03:49:05;100435.66;;;17.18;100.00
71165;BME280;58859;55.132;-1.586;2023-07-22T03:51:31;100442.88;;;16.41;100.00
71165;BME280;58859;55.132;-1.586;2023-07-22T03:53:57;100434.78;;;15.66;100.00
71165;BME280;58859;55.132;-1.586;2023-07-22T03:56:22;100429.88;;;15.27;100.00
71165;BME280;58859;55.132;-1.586;2023-07-22T03:58:49;100419.78;;;15.60;100.00
71165;BME280;58859;55.132;-1.586;2023-07-22T04:01:14;100426.53;;;16.18;100.00
71165;BME280;58859;55.132;-1.586;2023-07-22T04:03:40;100415.03;;;18.09;100.00
71165;BME280;58859;55.132;-1.586;2023-07-22T04:06:05;100406.13;;;18.03;100.00
71165;BME280;58859;55.132;-1.586;2023-07-22T04:08:31;100392.25;;;16.82;100.00
71165;BME280;58859;55.132;-1.586;2023-07-22T04:10:57;100397.78;;;17.60;100.00
71165;BME280;58859;55.132;-1.586;2023-07-22T04:13:24;100405.25;;;16.06;100.00
71165;BME280;58859;55.132;-1.586;2023-07-22T04:15:50;100392.66;;;17.39;100.00
71165;BME280;58859;55.132;-1.586;2023-07-22T04:18:17;100392.13;;;17.63;100.00
71165;BME280;58859;55.132;-1.586;2023-07-22T04:20:43;100390.06;;;16.23;100.00
71165;BME280;58859;55.132;-1.586;2023-07-22T04:23:09;100387.34;;;17.13;100.00
71165;BME280;58859;55.132;-1.586;2023-07-22T04:25:44;100395.16;;;15.40;100.00
71165;BME280;58859;55.132;-1.586;2023-07-22T04:28:10;100391.88;;;15.17;100.00
71165;BME280;58859;55.132;-1.586;2023-07-22T04:30:37;100386.91;;;15.58;100.00
71165;BME280;58859;55.132;-1.586;2023-07-22T04:33:03;100377.34;;;16.95;100.00
71165;BME280;58859;55.132;-1.586;2023-07-22T04:35:33;100384.47;;;15.41;100.00
71165;BME280;58859;55.132;-1.586;2023-07-22T04:37:59;100381.47;;;15.23;100.00
71165;BME280;58859;55.132;-1.586;2023-07-22T04:40:25;100374.78;;;15.78;100.00
71165;BME280;58859;55.132;-1.586;2023-07-22T04:42:51;100377.03;;;16.36;100.00
71165;BME280;58859;55.132;-1.586;2023-07-22T04:45:17;100365.97;;;16.47;100.00
71165;BME280;58859;55.132;-1.586;2023-07-22T04:47:43;100364.63;;;17.86;100.00
71165;BME280;58859;55.132;-1.586;2023-07-22T04:50:12;100355.00;;;16.72;100.00
71165;BME280;58859;55.132;-1.586;2023-07-22T04:52:37;100364.06;;;16.28;100.00
71165;BME280;58859;55.132;-1.586;2023-07-22T04:55:03;100361.63;;;15.99;100.00
71165;BME280;58859;55.132;-1.586;2023-07-22T04:57:34;100358.94;;;15.92;100.00
71165;BME280;58859;55.132;-1.586;2023-07-22T05:00:00;100357.13;;;15.93;100.00
71165;BME280;58859;55.132;-1.586;2023-07-22T05:02:28;100359.59;;;15.94;100.00
71165;BME280;58859;55.132;-1.586;2023-07-22T05:04:55;100351.88;;;15.65;100.00
71165;BME280;58859;55.132;-1.586;2023-07-22T05:07:21;100344.09;;;15.36;100.00
71165;BME280;58859;55.132;-1.586;2023-07-22T05:09:46;100347.34;;;15.38;100.00
71165;BME280;58859;55.132;-1.586;2023-07-22T05:12:12;100342.13;;;16.42;100.00
71165;BME280;58859;55.132;-1.586;2023-07-22T05:14:37;100330.72;;;16.56;100.00
71165;BME280;58859;55.132;-1.586;2023-07-22T05:17:03;100346.56;;;15.80;100.00
71165;BME280;58859;55.132;-1.586;2023-07-22T05:19:28;100330.28;;;16.19;100.00
71165;BME280;58859;55.132;-1.586;2023-07-22T05:21:54;100337.69;;;17.51;100.00
71165;BME280;58859;55.132;-1.586;2023-07-22T05:24:19;100324.56;;;16.84;100.00
71165;BME280;58859;55.132;-1.586;2023-07-22T05:26:46;100332.75;;;15.99;100.00
71165;BME280;58859;55.132;-1.586;2023-07-22T05:29:11;100320.81;;;16.24;100.00
71165;BME280;58859;55.132;-1.586;2023-07-22T05:31:37;100325.56;;;15.80;100.00
71165;BME280;58859;55.132;-1.586;2023-07-22T05:34:02;100323.63;;;15.46;100.00
71165;BME280;58859;55.132;-1.586;2023-07-22T05:36:29;100321.78;;;15.61;100.00
71165;BME280;58859;55.132;-1.586;2023-07-22T05:38:54;100316.16;;;15.43;100.00
71165;BME280;58859;55.132;-1.586;2023-07-22T05:41:20;100307.19;;;15.52;100.00
71165;BME280;58859;55.132;-1.586;2023-07-22T05:43:45;100318.88;;;15.49;100.00
71165;BME280;58859;55.132;-1.586;2023-07-22T05:46:10;100310.47;;;15.39;100.00
71165;BME280;58859;55.132;-1.586;2023-07-22T05:48:36;100304.94;;;15.49;100.00
71165;BME280;58859;55.132;-1.586;2023-07-22T05:51:01;100309.91;;;15.23;100.00
71165;BME280;58859;55.132;-1.586;2023-07-22T05:53:27;100308.13;;;15.66;100.00
71165;BME280;58859;55.132;-1.586;2023-07-22T05:55:52;100313.28;;;15.38;100.00
71165;BME280;58859;55.132;-1.586;2023-07-22T05:58:17;100306.72;;;15.70;100.00
71165;BME280;58859;55.132;-1.586;2023-07-22T06:00:43;100303.56;;;15.81;100.00
71165;BME280;58859;55.132;-1.586;2023-07-22T06:03:09;100292.28;;;16.96;100.00
71165;BME280;58859;55.132;-1.586;2023-07-22T06:05:35;100297.03;;;16.60;100.00
71165;BME280;58859;55.132;-1.586;2023-07-22T06:08:00;100302.03;;;15.86;100.00
71165;BME280;58859;55.132;-1.586;2023-07-22T06:10:26;100293.09;;;15.81;100.00
71165;BME280;58859;55.132;-1.586;2023-07-22T06:12:51;100297.03;;;15.70;100.00
71165;BME280;58859;55.132;-1.586;2023-07-22T06:15:17;100290.00;;;15.71;100.00
71165;BME280;58859;55.132;-1.586;2023-07-22T06:17:42;100289.25;;;15.77;100.00
71165;BME280;58859;55.132;-1.586;2023-07-22T06:20:08;100291.78;;;16.32;100.00
71165;BME280;58859;55.132;-1.586;2023-07-22T06:22:34;100283.16;;;16.38;100.00
71165;BME280;58859;55.132;-1.586;2023-07-22T06:24:59;100285.97;;;16.43;100.00
71165;BME280;58859;55.132;-1.586;2023-07-22T06:27:25;100274.84;;;15.94;100.00
71165;BME280;58859;55.132;-1.586;2023-07-22T06:29:50;100280.56;;;15.76;100.00
71165;BME280;58859;55.132;-1.586;2023-07-22T06:32:15;100277.69;;;15.99;100.00
71165;BME280;58859;55.132;-1.586;2023-07-22T06:34:41;100273.78;;;17.63;100.00
71165;BME280;58859;55.132;-1.586;2023-07-22T06:37:06;100266.63;;;17.11;100.00
71165;BME280;58859;55.132;-1.586;2023-07-22T06:39:31;100274.88;;;16.89;100.00
71165;BME280;58859;55.132;-1.586;2023-07-22T06:41:57;100270.50;;;17.42;100.00
71165;BME280;58859;55.132;-1.586;2023-07-22T06:44:22;100269.97;;;16.73;100.00
71165;BME280;58859;55.132;-1.586;2023-07-22T06:46:48;100273.69;;;16.98;100.00
71165;BME280;58859;55.132;-1.586;2023-07-22T06:49:13;100273.38;;;17.66;100.00
71165;BME280;58859;55.132;-1.586;2023-07-22T06:51:38;100277.50;;;16.89;100.00
71165;BME280;58859;55.132;-1.586;2023-07-22T06:54:04;100262.75;;;16.94;100.00
71165;BME280;58859;55.132;-1.586;2023-07-22T06:56:29;100272.19;;;16.62;100.00
71165;BME280;58859;55.132;-1.586;2023-07-22T06:58:54;100262.72;;;16.75;100.00
71165;BME280;58859;55.132;-1.586;2023-07-22T07:01:20;100264.69;;;16.66;100.00
71165;BME280;58859;55.132;-1.586;2023-07-22T07:03:45;100264.88;;;16.58;100.00
71165;BME280;58859;55.132;-1.586;2023-07-22T07:06:11;100256.38;;;17.82;100.00
71165;BME280;58859;55.132;-1.586;2023-07-22T07:08:37;100255.53;;;17.49;100.00
71165;BME280;58859;55.132;-1.586;2023-07-22T07:11:02;100254.56;;;17.76;100.00
71165;BME280;58859;55.132;-1.586;2023-07-22T07:13:28;100250.91;;;17.57;100.00
71165;BME280;58859;55.132;-1.586;2023-07-22T07:15:54;100252.75;;;18.34;100.00
71165;BME280;58859;55.132;-1.586;2023-07-22T07:18:20;100252.72;;;18.54;100.00
71165;BME280;58859;55.132;-1.586;2023-07-22T07:20:45;100251.16;;;18.84;100.00
71165;BME280;58859;55.132;-1.586;2023-07-22T07:23:12;100252.72;;;17.50;100.00
71165;BME280;58859;55.132;-1.586;2023-07-22T07:25:38;100245.81;;;17.43;100.00
71165;BME280;58859;55.132;-1.586;2023-07-22T07:28:04;100247.06;;;17.66;100.00
71165;BME280;58859;55.132;-1.586;2023-07-22T07:30:29;100249.06;;;17.71;100.00
71165;BME280;58859;55.132;-1.586;2023-07-22T07:32:55;100241.72;;;16.94;100.00
71165;BME280;58859;55.132;-1.586;2023-07-22T07:35:20;100244.91;;;16.57;100.00
71165;BME280;58859;55.132;-1.586;2023-07-22T07:37:45;100244.44;;;17.34;100.00
71165;BME280;58859;55.132;-1.586;2023-07-22T07:40:11;100237.53;;;17.13;100.00
71165;BME280;58859;55.132;-1.586;2023-07-22T07:42:37;100248.06;;;17.39;100.00
71165;BME280;58859;55.132;-1.586;2023-07-22T07:45:03;100237.31;;;17.80;100.00
71165;BME280;58859;55.132;-1.586;2023-07-22T07:47:28;100239.38;;;17.39;100.00
71165;BME280;58859;55.132;-1.586;2023-07-22T07:49:54;100238.78;;;17.37;100.00
71165;BME280;58859;55.132;-1.586;2023-07-22T07:52:19;100238.13;;;17.74;100.00
71165;BME280;58859;55.132;-1.586;2023-07-22T07:54:44;100237.91;;;16.90;100.00
71165;BME280;58859;55.132;-1.586;2023-07-22T07:57:10;100230.84;;;16.91;100.00
71165;BME280;58859;55.132;-1.586;2023-07-22T07:59:35;100237.94;;;17.16;100.00
71165;BME280;58859;55.132;-1.586;2023-07-22T08:02:01;100242.34;;;18.01;100.00
71165;BME280;58859;55.132;-1.586;2023-07-22T08:04:27;100237.75;;;17.64;100.00
71165;BME280;58859;55.132;-1.586;2023-07-22T08:06:52;100238.34;;;17.33;100.00
71165;BME280;58859;55.132;-1.586;2023-07-22T08:09:18;100241.22;;;18.35;100.00
71165;BME280;58859;55.132;-1.586;2023-07-22T08:11:46;100233.56;;;18.20;100.00
71165;BME280;58859;55.132;-1.586;2023-07-22T08:14:11;100223.69;;;18.16;100.00
71165;BME280;58859;55.132;-1.586;2023-07-22T08:16:37;100234.03;;;18.62;100.00
71165;BME280;58859;55.132;-1.586;2023-07-22T08:19:03;100238.03;;;18.26;100.00
71165;BME280;58859;55.132;-1.586;2023-07-22T08:21:29;100231.91;;;17.62;100.00
71165;BME280;58859;55.132;-1.586;2023-07-22T08:23:55;100236.94;;;17.31;100.00
71165;BME280;58859;55.132;-1.586;2023-07-22T08:26:20;100228.41;;;17.48;100.00
71165;BME280;58859;55.132;-1.586;2023-07-22T08:28:47;100223.59;;;17.39;100.00
71165;BME280;58859;55.132;-1.586;2023-07-22T08:31:13;100231.28;;;17.27;100.00
71165;BME280;58859;55.132;-1.586;2023-07-22T08:33:38;100219.94;;;17.40;100.00
71165;BME280;58859;55.132;-1.586;2023-07-22T08:36:04;100220.09;;;17.97;100.00
71165;BME280;58859;55.132;-1.586;2023-07-22T08:38:30;100212.47;;;17.43;100.00
71165;BME280;58859;55.132;-1.586;2023-07-22T08:40:56;100219.66;;;18.13;100.00
71165;BME280;58859;55.132;-1.586;2023-07-22T08:43:22;100213.09;;;17.45;100.00
71165;BME280;58859;55.132;-1.586;2023-07-22T08:45:52;100216.50;;;17.26;100.00
71165;BME280;58859;55.132;-1.586;2023-07-22T08:48:21;100214.88;;;17.32;100.00
71165;BME280;58859;55.132;-1.586;2023-07-22T08:50:53;100212.47;;;17.63;100.00
71165;BME280;58859;55.132;-1.586;2023-07-22T08:53:20;100206.69;;;18.05;100.00
71165;BME280;58859;55.132;-1.586;2023-07-22T08:55:45;100213.28;;;18.34;100.00
71165;BME280;58859;55.132;-1.586;2023-07-22T08:58:11;100205.28;;;18.09;100.00
71165;BME280;58859;55.132;-1.586;2023-07-22T09:00:38;100203.88;;;17.94;100.00
71165;BME280;58859;55.132;-1.586;2023-07-22T09:03:04;100207.75;;;17.91;100.00
71165;BME280;58859;55.132;-1.586;2023-07-22T09:05:34;100206.41;;;18.26;100.00
71165;BME280;58859;55.132;-1.586;2023-07-22T09:08:02;100200.13;;;17.76;100.00
71165;BME280;58859;55.132;-1.586;2023-07-22T09:10:28;100195.41;;;17.85;100.00
71165;BME280;58859;55.132;-1.586;2023-07-22T09:12:54;100197.09;;;17.60;100.00
71165;BME280;58859;55.132;-1.586;2023-07-22T09:15:20;100193.63;;;17.79;100.00
71165;BME280;58859;55.132;-1.586;2023-07-22T09:17:46;100187.97;;;17.75;100.00
71165;BME280;58859;55.132;-1.586;2023-07-22T09:20:13;100199.34;;;17.56;100.00
71165;BME280;58859;55.132;-1.586;2023-07-22T09:22:47;100190.00;;;17.73;100.00
71165;BME280;58859;55.132;-1.586;2023-07-22T09:25:18;100181.13;;;17.68;100.00
71165;BME280;58859;55.132;-1.586;2023-07-22T09:27:49;100185.59;;;17.28;100.00
71165;BME280;58859;55.132;-1.586;2023-07-22T09:30:21;100180.09;;;17.75;100.00
71165;BME280;58859;55.132;-1.586;2023-07-22T09:32:47;100180.91;;;17.50;100.00
71165;BME280;58859;55.132;-1.586;2023-07-22T09:35:13;100172.81;;;17.64;100.00
71165;BME280;58859;55.132;-1.586;2023-07-22T09:37:38;100176.22;;;17.85;100.00
71165;BME280;58859;55.132;-1.586;2023-07-22T09:42:46;100169.97;;;18.30;100.00
71165;BME280;58859;55.132;-1.586;2023-07-22T09:45:11;100173.22;;;18.25;100.00
71165;BME280;58859;55.132;-1.586;2023-07-22T09:47:44;100166.94;;;18.20;100.00
71165;BME280;58859;55.132;-1.586;2023-07-22T09:50:21;100174.00;;;17.75;100.00
71165;BME280;58859;55.132;-1.586;2023-07-22T09:52:49;100169.75;;;17.80;100.00
71165;BME280;58859;55.132;-1.586;2023-07-22T09:55:16;100164.13;;;17.51;100.00
71165;BME280;58859;55.132;-1.586;2023-07-22T09:57:47;100167.97;;;17.55;100.00
71165;BME280;58859;55.132;-1.586;2023-07-22T10:00:14;100165.16;;;17.56;100.00
71165;BME280;58859;55.132;-1.586;2023-07-22T10:02:42;100168.38;;;17.65;100.00
71165;BME280;58859;55.132;-1.586;2023-07-22T10:05:12;100166.16;;;17.55;100.00
71165;BME280;58859;55.132;-1.586;2023-07-22T10:07:43;100171.22;;;18.21;100.00
71165;BME280;58859;55.132;-1.586;2023-07-22T10:10:11;100174.16;;;18.37;100.00
71165;BME280;58859;55.132;-1.586;2023-07-22T10:12:39;100170.91;;;18.49;100.00
71165;BME280;58859;55.132;-1.586;2023-07-22T10:15:06;100158.25;;;17.49;100.00
71165;BME280;58859;55.132;-1.586;2023-07-22T10:17:32;100164.22;;;17.95;100.00
71165;BME280;58859;55.132;-1.586;2023-07-22T10:19:58;100162.16;;;18.10;100.00
71165;BME280;58859;55.132;-1.586;2023-07-22T10:22:24;100159.44;;;17.66;100.00
71165;BME280;58859;55.132;-1.586;2023-07-22T10:24:50;100154.59;;;17.69;100.00
71165;BME280;58859;55.132;-1.586;2023-07-22T10:27:17;100156.63;;;17.61;100.00
71165;BME280;58859;55.132;-1.586;2023-07-22T10:29:45;100153.47;;;18.03;100.00
71165;BME280;58859;55.132;-1.586;2023-07-22T10:32:11;100142.13;;;18.03;100.00
71165;BME280;58859;55.132;-1.586;2023-07-22T10:34:36;100151.97;;;17.69;100.00
71165;BME280;58859;55.132;-1.586;2023-07-22T10:37:02;100146.72;;;18.14;100.00
71165;BME280;58859;55.132;-1.586;2023-07-22T10:39:29;100151.59;;;17.27;100.00
71165;BME280;58859;55.132;-1.586;2023-07-22T10:42:02;100147.53;;;17.70;100.00
71165;BME280;58859;55.132;-1.586;2023-07-22T10:44:37;100149.53;;;17.74;100.00
71165;BME280;58859;55.132;-1.586;2023-07-22T10:47:03;100140.16;;;17.92;100.00
71165;BME280;58859;55.132;-1.586;2023-07-22T10:49:47;100149.34;;;17.69;100.00
71165;BME280;58859;55.132;-1.586;2023-07-22T10:52:13;100141.28;;;18.09;100.00
71165;BME280;58859;55.132;-1.586;2023-07-22T10:54:39;100144.25;;;18.25;100.00
71165;BME280;58859;55.132;-1.586;2023-07-22T10:57:25;100140.34;;;18.34;100.00
71165;BME280;58859;55.132;-1.586;2023-07-22T10:59:55;100140.75;;;18.76;100.00
71165;BME280;58859;55.132;-1.586;2023-07-22T11:02:25;100132.91;;;18.25;100.00
71165;BME280;58859;55.132;-1.586;2023-07-22T11:04:51;100133.78;;;17.61;100.00
71165;BME280;58859;55.132;-1.586;2023-07-22T11:07:30;100125.13;;;18.50;100.00
71165;BME280;58859;55.132;-1.586;2023-07-22T11:09:55;100131.97;;;18.51;100.00
71165;BME280;58859;55.132;-1.586;2023-07-22T11:12:21;100135.13;;;17.77;100.00
71165;BME280;58859;55.132;-1.586;2023-07-22T11:14:51;100125.94;;;18.44;100.00
71165;BME280;58859;55.132;-1.586;2023-07-22T11:17:18;100126.00;;;17.86;100.00
71165;BME280;58859;55.132;-1.586;2023-07-22T11:19:44;100124.41;;;18.23;100.00
71165;BME280;58859;55.132;-1.586;2023-07-22T11:22:10;100125.38;;;18.73;100.00
71165;BME280;58859;55.132;-1.586;2023-07-22T11:24:36;100121.50;;;18.37;100.00
71165;BME280;58859;55.132;-1.586;2023-07-22T11:27:06;100119.56;;;18.20;100.00
71165;BME280;58859;55.132;-1.586;2023-07-22T11:29:34;100115.69;;;18.29;100.00
71165;BME280;58859;55.132;-1.586;2023-07-22T11:32:01;100112.75;;;18.12;100.00
71165;BME280;58859;55.132;-1.586;2023-07-22T11:34:27;100111.91;;;18.18;100.00
71165;BME280;58859;55.132;-1.586;2023-07-22T11:36:54;100106.22;;;18.21;100.00
71165;BME280;58859;55.132;-1.586;2023-07-22T11:39:27;100113.50;;;18.19;100.00
71165;BME280;58859;55.132;-1.586;2023-07-22T11:41:57;100106.69;;;18.43;100.00
71165;BME280;58859;55.132;-1.586;2023-07-22T11:44:27;100102.00;;;18.52;100.00
71165;BME280;58859;55.132;-1.586;2023-07-22T11:47:04;100099.09;;;17.84;100.00
71165;BME280;58859;55.132;-1.586;2023-07-22T11:49:34;100096.50;;;17.77;100.00
71165;BME280;58859;55.132;-1.586;2023-07-22T11:54:37;100088.06;;;18.07;100.00
71165;BME280;58859;55.132;-1.586;2023-07-22T11:57:21;100090.44;;;18.15;100.00
71165;BME280;58859;55.132;-1.586;2023-07-22T11:59:49;100084.63;;;19.18;100.00
71165;BME280;58859;55.132;-1.586;2023-07-22T12:02:22;100079.88;;;18.84;100.00
71165;BME280;58859;55.132;-1.586;2023-07-22T12:05:01;100081.31;;;18.80;100.00
71165;BME280;58859;55.132;-1.586;2023-07-22T12:07:38;100074.06;;;18.44;100.00
71165;BME280;58859;55.132;-1.586;2023-07-22T12:10:07;100073.22;;;19.00;100.00
71165;BME280;58859;55.132;-1.586;2023-07-22T12:12:44;100065.63;;;18.67;100.00
71165;BME280;58859;55.132;-1.586;2023-07-22T12:15:19;100074.75;;;18.64;100.00
71165;BME280;58859;55.132;-1.586;2023-07-22T12:20:18;100076.00;;;18.86;100.00
71165;BME280;58859;55.132;-1.586;2023-07-22T12:22:44;100059.84;;;19.19;100.00
71165;BME280;58859;55.132;-1.586;2023-07-22T12:25:10;100061.94;;;18.68;100.00
71165;BME280;58859;55.132;-1.586;2023-07-22T12:27:36;100073.69;;;18.41;100.00
71165;BME280;58859;55.132;-1.586;2023-07-22T12:30:02;100055.81;;;19.17;100.00
71165;BME280;58859;55.132;-1.586;2023-07-22T12:32:28;100052.47;;;19.10;100.00
71165;BME280;58859;55.132;-1.586;2023-07-22T12:34:53;100054.72;;;19.24;100.00